sensor_id;sensor_type;location;lat;lon;timestamp;P1;durP1;ratioP1;P2;durP2;ratioP2
52354;SDS011;38286;51.156;17.038;2023-02-28T00:00:05;103.82;;;36.08;;
52354;SDS011;38286;51.156;17.038;2023-02-28T00:02:57;113.97;;;35.53;;
52354;SDS011;38286;51.156;17.038;2023-02-28T00:05:23;108.90;;;33.05;;
52354;SDS011;38286;51.156;17.038;2023-02-28T00:07:50;95.28;;;31.23;;
52354;SDS011;38286;51.156;17.038;2023-02-28T00:10:20;82.32;;;27.63;;
52354;SDS011;38286;51.156;17.038;2023-02-28T00:12:48;80.63;;;26.98;;
52354;SDS011;38286;51.156;17.038;2023-02-28T00:15:18;75.82;;;26.13;;
52354;SDS011;38286;51.156;17.038;2023-02-28T00:17:45;83.13;;;28.58;;
52354;SDS011;38286;51.156;17.038;2023-02-28T00:20:11;82.97;;;28.75;;
52354;SDS011;38286;51.156;17.038;2023-02-28T00:22:39;82.65;;;26.23;;
52354;SDS011;38286;51.156;17.038;2023-02-28T00:25:07;53.08;;;21.70;;
52354;SDS011;38286;51.156;17.038;2023-02-28T00:27:34;70.38;;;23.55;;
52354;SDS011;38286;51.156;17.038;2023-02-28T00:30:00;60.45;;;20.92;;
52354;SDS011;38286;51.156;17.038;2023-02-28T00:32:27;78.72;;;29.35;;
52354;SDS011;38286;51.156;17.038;2023-02-28T00:34:52;103.28;;;32.42;;
52354;SDS011;38286;51.156;17.038;2023-02-28T00:37:18;102.63;;;34.08;;
52354;SDS011;38286;51.156;17.038;2023-02-28T00:39:44;92.60;;;28.50;;
52354;SDS011;38286;51.156;17.038;2023-02-28T00:42:10;84.68;;;28.02;;
52354;SDS011;38286;51.156;17.038;2023-02-28T00:44:35;64.13;;;23.48;;
52354;SDS011;38286;51.156;17.038;2023-02-28T00:47:01;74.05;;;28.73;;
52354;SDS011;38286;51.156;17.038;2023-02-28T00:49:27;87.20;;;29.85;;
52354;SDS011;38286;51.156;17.038;2023-02-28T00:51:54;72.03;;;25.85;;
52354;SDS011;38286;51.156;17.038;2023-02-28T00:54:20;74.38;;;27.02;;
52354;SDS011;38286;51.156;17.038;2023-02-28T00:56:47;59.28;;;23.50;;
52354;SDS011;38286;51.156;17.038;2023-02-28T00:59:13;81.50;;;30.30;;
52354;SDS011;38286;51.156;17.038;2023-02-28T01:01:39;52.83;;;21.27;;
52354;SDS011;38286;51.156;17.038;2023-02-28T01:04:04;56.25;;;20.30;;
52354;SDS011;38286;51.156;17.038;2023-02-28T01:06:30;59.10;;;22.55;;
52354;SDS011;38286;51.156;17.038;2023-02-28T01:08:57;73.65;;;25.27;;
52354;SDS011;38286;51.156;17.038;2023-02-28T01:11:23;57.40;;;22.08;;
52354;SDS011;38286;51.156;17.038;2023-02-28T01:13:48;43.78;;;17.45;;
52354;SDS011;38286;51.156;17.038;2023-02-28T01:16:14;53.80;;;22.05;;
52354;SDS011;38286;51.156;17.038;2023-02-28T01:18:40;46.45;;;19.90;;
52354;SDS011;38286;51.156;17.038;2023-02-28T01:21:06;46.08;;;18.77;;
52354;SDS011;38286;51.156;17.038;2023-02-28T01:23:33;56.70;;;21.95;;
52354;SDS011;38286;51.156;17.038;2023-02-28T01:26:05;59.30;;;21.23;;
52354;SDS011;38286;51.156;17.038;2023-02-28T01:28:35;48.92;;;18.00;;
52354;SDS011;38286;51.156;17.038;2023-02-28T01:31:01;50.53;;;18.35;;
52354;SDS011;38286;51.156;17.038;2023-02-28T01:33:27;45.20;;;17.85;;
52354;SDS011;38286;51.156;17.038;2023-02-28T01:38:25;47.35;;;19.35;;
52354;SDS011;38286;51.156;17.038;2023-02-28T01:40:51;47.22;;;20.27;;
52354;SDS011;38286;51.156;17.038;2023-02-28T01:43:19;49.28;;;20.00;;
52354;SDS011;38286;51.156;17.038;2023-02-28T01:45:47;49.05;;;18.88;;
52354;SDS011;38286;51.156;17.038;2023-02-28T01:48:13;56.40;;;19.48;;
52354;SDS011;38286;51.156;17.038;2023-02-28T01:50:39;53.92;;;21.17;;
52354;SDS011;38286;51.156;17.038;2023-02-28T01:53:09;57.03;;;20.95;;
52354;SDS011;38286;51.156;17.038;2023-02-28T01:55:37;56.90;;;21.73;;
52354;SDS011;38286;51.156;17.038;2023-02-28T01:58:04;56.88;;;21.83;;
52354;SDS011;38286;51.156;17.038;2023-02-28T02:00:30;42.78;;;17.88;;
52354;SDS011;38286;51.156;17.038;2023-02-28T02:02:57;61.45;;;21.50;;
52354;SDS011;38286;51.156;17.038;2023-02-28T02:05:26;66.10;;;22.67;;
52354;SDS011;38286;51.156;17.038;2023-02-28T02:08:04;79.50;;;25.42;;
52354;SDS011;38286;51.156;17.038;2023-02-28T02:10:36;76.65;;;26.73;;
52354;SDS011;38286;51.156;17.038;2023-02-28T02:15:32;57.15;;;20.83;;
52354;SDS011;38286;51.156;17.038;2023-02-28T02:18:04;54.35;;;19.92;;
52354;SDS011;38286;51.156;17.038;2023-02-28T02:26:03;64.78;;;23.00;;
52354;SDS011;38286;51.156;17.038;2023-02-28T02:28:50;66.35;;;23.40;;
52354;SDS011;38286;51.156;17.038;2023-02-28T02:34:28;54.25;;;21.98;;
52354;SDS011;38286;51.156;17.038;2023-02-28T02:36:58;67.22;;;22.92;;
52354;SDS011;38286;51.156;17.038;2023-02-28T02:39:30;67.00;;;24.55;;
52354;SDS011;38286;51.156;17.038;2023-02-28T02:42:03;65.17;;;24.00;;
52354;SDS011;38286;51.156;17.038;2023-02-28T02:44:40;67.55;;;23.52;;
52354;SDS011;38286;51.156;17.038;2023-02-28T02:47:14;62.83;;;23.10;;
52354;SDS011;38286;51.156;17.038;2023-02-28T02:49:42;54.83;;;20.85;;
52354;SDS011;38286;51.156;17.038;2023-02-28T02:52:12;44.70;;;18.20;;
52354;SDS011;38286;51.156;17.038;2023-02-28T02:54:40;49.88;;;19.80;;
52354;SDS011;38286;51.156;17.038;2023-02-28T02:57:17;44.92;;;18.15;;
52354;SDS011;38286;51.156;17.038;2023-02-28T02:59:46;48.13;;;18.05;;
52354;SDS011;38286;51.156;17.038;2023-02-28T03:02:14;45.20;;;17.10;;
52354;SDS011;38286;51.156;17.038;2023-02-28T03:04:53;36.15;;;16.52;;
52354;SDS011;38286;51.156;17.038;2023-02-28T03:07:26;41.42;;;15.88;;
52354;SDS011;38286;51.156;17.038;2023-02-28T03:09:52;39.65;;;16.33;;
52354;SDS011;38286;51.156;17.038;2023-02-28T03:12:19;36.70;;;15.40;;
52354;SDS011;38286;51.156;17.038;2023-02-28T03:20:34;36.78;;;14.95;;
52354;SDS011;38286;51.156;17.038;2023-02-28T03:23:15;39.05;;;16.08;;
52354;SDS011;38286;51.156;17.038;2023-02-28T03:28:16;37.63;;;16.33;;
52354;SDS011;38286;51.156;17.038;2023-02-28T03:31:30;44.63;;;18.45;;
52354;SDS011;38286;51.156;17.038;2023-02-28T03:33:44;42.97;;;15.35;;
52354;SDS011;38286;51.156;17.038;2023-02-28T03:36:20;43.97;;;18.13;;
52354;SDS011;38286;51.156;17.038;2023-02-28T03:38:49;42.47;;;17.33;;
52354;SDS011;38286;51.156;17.038;2023-02-28T03:41:21;37.97;;;16.05;;
52354;SDS011;38286;51.156;17.038;2023-02-28T03:44:10;34.88;;;15.40;;
52354;SDS011;38286;51.156;17.038;2023-02-28T03:46:37;39.35;;;15.82;;
52354;SDS011;38286;51.156;17.038;2023-02-28T03:49:23;42.58;;;17.15;;
52354;SDS011;38286;51.156;17.038;2023-02-28T03:51:50;44.47;;;17.13;;
52354;SDS011;38286;51.156;17.038;2023-02-28T03:54:18;40.95;;;16.52;;
52354;SDS011;38286;51.156;17.038;2023-02-28T03:56:48;37.58;;;16.20;;
52354;SDS011;38286;51.156;17.038;2023-02-28T03:59:20;37.92;;;16.63;;
52354;SDS011;38286;51.156;17.038;2023-02-28T04:01:53;37.78;;;16.67;;
52354;SDS011;38286;51.156;17.038;2023-02-28T04:04:20;40.20;;;16.88;;
52354;SDS011;38286;51.156;17.038;2023-02-28T04:06:46;41.35;;;17.60;;
52354;SDS011;38286;51.156;17.038;2023-02-28T04:09:15;44.00;;;17.00;;
52354;SDS011;38286;51.156;17.038;2023-02-28T04:11:50;36.10;;;15.75;;
52354;SDS011;38286;51.156;17.038;2023-02-28T04:14:17;36.90;;;16.45;;
52354;SDS011;38286;51.156;17.038;2023-02-28T04:16:43;45.58;;;17.67;;
52354;SDS011;38286;51.156;17.038;2023-02-28T04:19:11;41.13;;;18.63;;
52354;SDS011;38286;51.156;17.038;2023-02-28T04:21:40;39.55;;;18.13;;
52354;SDS011;38286;51.156;17.038;2023-02-28T04:24:09;36.95;;;17.42;;
52354;SDS011;38286;51.156;17.038;2023-02-28T04:26:39;41.90;;;16.63;;
52354;SDS011;38286;51.156;17.038;2023-02-28T04:29:10;42.63;;;16.88;;
52354;SDS011;38286;51.156;17.038;2023-02-28T04:31:37;37.17;;;16.75;;
52354;SDS011;38286;51.156;17.038;2023-02-28T04:34:03;38.30;;;16.20;;
52354;SDS011;38286;51.156;17.038;2023-02-28T04:36:29;40.88;;;16.77;;
52354;SDS011;38286;51.156;17.038;2023-02-28T04:38:55;39.35;;;16.73;;
52354;SDS011;38286;51.156;17.038;2023-02-28T04:41:21;40.95;;;16.23;;
52354;SDS011;38286;51.156;17.038;2023-02-28T04:43:48;35.25;;;16.05;;
52354;SDS011;38286;51.156;17.038;2023-02-28T04:46:14;44.33;;;16.10;;
52354;SDS011;38286;51.156;17.038;2023-02-28T04:48:40;40.13;;;17.20;;
52354;SDS011;38286;51.156;17.038;2023-02-28T04:53:33;42.40;;;16.83;;
52354;SDS011;38286;51.156;17.038;2023-02-28T04:55:59;38.20;;;17.20;;
52354;SDS011;38286;51.156;17.038;2023-02-28T04:58:26;33.85;;;15.57;;
52354;SDS011;38286;51.156;17.038;2023-02-28T05:00:52;33.65;;;16.33;;
52354;SDS011;38286;51.156;17.038;2023-02-28T05:03:18;35.40;;;16.40;;
52354;SDS011;38286;51.156;17.038;2023-02-28T05:05:46;38.53;;;17.05;;
52354;SDS011;38286;51.156;17.038;2023-02-28T05:08:12;34.15;;;16.38;;
52354;SDS011;38286;51.156;17.038;2023-02-28T05:10:37;43.28;;;16.67;;
52354;SDS011;38286;51.156;17.038;2023-02-28T05:13:03;40.35;;;17.00;;
52354;SDS011;38286;51.156;17.038;2023-02-28T05:15:29;35.65;;;17.27;;
52354;SDS011;38286;51.156;17.038;2023-02-28T05:17:55;38.55;;;17.02;;
52354;SDS011;38286;51.156;17.038;2023-02-28T05:20:20;36.95;;;16.55;;
52354;SDS011;38286;51.156;17.038;2023-02-28T05:22:46;32.97;;;15.40;;
52354;SDS011;38286;51.156;17.038;2023-02-28T05:25:12;33.78;;;14.48;;
52354;SDS011;38286;51.156;17.038;2023-02-28T05:27:41;37.58;;;15.30;;
52354;SDS011;38286;51.156;17.038;2023-02-28T05:30:06;35.22;;;15.40;;
52354;SDS011;38286;51.156;17.038;2023-02-28T05:32:36;33.83;;;15.23;;
52354;SDS011;38286;51.156;17.038;2023-02-28T05:35:03;35.40;;;15.30;;
52354;SDS011;38286;51.156;17.038;2023-02-28T05:37:29;38.40;;;16.25;;
52354;SDS011;38286;51.156;17.038;2023-02-28T05:39:54;39.35;;;16.77;;
52354;SDS011;38286;51.156;17.038;2023-02-28T05:42:20;41.45;;;17.17;;
52354;SDS011;38286;51.156;17.038;2023-02-28T05:44:46;42.78;;;17.98;;
52354;SDS011;38286;51.156;17.038;2023-02-28T05:47:12;40.47;;;15.98;;
52354;SDS011;38286;51.156;17.038;2023-02-28T05:49:40;41.58;;;17.92;;
52354;SDS011;38286;51.156;17.038;2023-02-28T05:52:07;43.38;;;20.23;;
52354;SDS011;38286;51.156;17.038;2023-02-28T05:54:32;42.08;;;19.83;;
52354;SDS011;38286;51.156;17.038;2023-02-28T05:56:58;43.42;;;19.35;;
52354;SDS011;38286;51.156;17.038;2023-02-28T05:59:23;39.92;;;18.30;;
52354;SDS011;38286;51.156;17.038;2023-02-28T06:01:49;35.13;;;16.85;;
52354;SDS011;38286;51.156;17.038;2023-02-28T06:04:16;40.13;;;18.60;;
52354;SDS011;38286;51.156;17.038;2023-02-28T06:06:44;47.08;;;18.73;;
52354;SDS011;38286;51.156;17.038;2023-02-28T06:09:11;47.85;;;19.77;;
52354;SDS011;38286;51.156;17.038;2023-02-28T06:11:37;40.88;;;17.23;;
52354;SDS011;38286;51.156;17.038;2023-02-28T06:14:03;38.45;;;15.75;;
52354;SDS011;38286;51.156;17.038;2023-02-28T06:16:30;34.25;;;15.65;;
52354;SDS011;38286;51.156;17.038;2023-02-28T06:18:56;33.42;;;14.77;;
52354;SDS011;38286;51.156;17.038;2023-02-28T06:21:23;37.00;;;16.05;;
52354;SDS011;38286;51.156;17.038;2023-02-28T06:23:49;40.47;;;17.15;;
52354;SDS011;38286;51.156;17.038;2023-02-28T06:26:15;50.67;;;22.55;;
52354;SDS011;38286;51.156;17.038;2023-02-28T06:28:40;54.58;;;21.75;;
52354;SDS011;38286;51.156;17.038;2023-02-28T06:31:07;45.40;;;18.75;;
52354;SDS011;38286;51.156;17.038;2023-02-28T06:33:33;35.45;;;17.48;;
52354;SDS011;38286;51.156;17.038;2023-02-28T06:35:59;43.85;;;18.23;;
52354;SDS011;38286;51.156;17.038;2023-02-28T06:38:25;50.15;;;20.15;;
52354;SDS011;38286;51.156;17.038;2023-02-28T06:40:55;40.90;;;17.48;;
52354;SDS011;38286;51.156;17.038;2023-02-28T06:43:21;44.38;;;18.70;;
52354;SDS011;38286;51.156;17.038;2023-02-28T06:45:47;49.67;;;19.50;;
52354;SDS011;38286;51.156;17.038;2023-02-28T06:48:13;39.38;;;18.13;;
52354;SDS011;38286;51.156;17.038;2023-02-28T06:50:38;44.78;;;17.63;;
52354;SDS011;38286;51.156;17.038;2023-02-28T06:53:04;38.58;;;17.02;;
52354;SDS011;38286;51.156;17.038;2023-02-28T06:55:30;39.38;;;16.42;;
52354;SDS011;38286;51.156;17.038;2023-02-28T06:57:56;26.50;;;12.35;;
52354;SDS011;38286;51.156;17.038;2023-02-28T07:00:22;35.60;;;15.70;;
52354;SDS011;38286;51.156;17.038;2023-02-28T07:02:48;32.38;;;14.52;;
52354;SDS011;38286;51.156;17.038;2023-02-28T07:05:14;35.58;;;15.50;;
52354;SDS011;38286;51.156;17.038;2023-02-28T07:07:39;33.08;;;16.63;;
52354;SDS011;38286;51.156;17.038;2023-02-28T07:10:12;33.80;;;15.48;;
52354;SDS011;38286;51.156;17.038;2023-02-28T07:12:39;34.33;;;16.35;;
52354;SDS011;38286;51.156;17.038;2023-02-28T07:15:05;35.72;;;17.25;;
52354;SDS011;38286;51.156;17.038;2023-02-28T07:17:31;29.10;;;14.02;;
52354;SDS011;38286;51.156;17.038;2023-02-28T07:19:57;29.38;;;13.85;;
52354;SDS011;38286;51.156;17.038;2023-02-28T07:22:23;31.83;;;15.45;;
52354;SDS011;38286;51.156;17.038;2023-02-28T07:24:50;19.73;;;10.35;;
52354;SDS011;38286;51.156;17.038;2023-02-28T07:27:16;19.65;;;10.48;;
52354;SDS011;38286;51.156;17.038;2023-02-28T07:29:49;23.60;;;10.98;;
52354;SDS011;38286;51.156;17.038;2023-02-28T07:32:15;20.30;;;10.40;;
52354;SDS011;38286;51.156;17.038;2023-02-28T07:34:41;17.83;;;9.73;;
52354;SDS011;38286;51.156;17.038;2023-02-28T07:37:06;22.98;;;9.57;;
52354;SDS011;38286;51.156;17.038;2023-02-28T07:39:32;17.52;;;9.82;;
52354;SDS011;38286;51.156;17.038;2023-02-28T07:41:58;17.95;;;9.73;;
52354;SDS011;38286;51.156;17.038;2023-02-28T07:44:25;11.65;;;6.97;;
52354;SDS011;38286;51.156;17.038;2023-02-28T07:46:51;13.82;;;8.95;;
52354;SDS011;38286;51.156;17.038;2023-02-28T07:49:18;13.35;;;9.07;;
52354;SDS011;38286;51.156;17.038;2023-02-28T07:51:43;12.45;;;8.63;;
52354;SDS011;38286;51.156;17.038;2023-02-28T07:54:09;11.77;;;8.02;;
52354;SDS011;38286;51.156;17.038;2023-02-28T07:56:35;16.77;;;9.82;;
52354;SDS011;38286;51.156;17.038;2023-02-28T07:59:01;14.82;;;8.40;;
52354;SDS011;38286;51.156;17.038;2023-02-28T08:01:27;14.40;;;7.97;;
52354;SDS011;38286;51.156;17.038;2023-02-28T08:03:53;13.15;;;7.78;;
52354;SDS011;38286;51.156;17.038;2023-02-28T08:06:23;14.18;;;7.97;;
52354;SDS011;38286;51.156;17.038;2023-02-28T08:08:50;13.55;;;8.27;;
52354;SDS011;38286;51.156;17.038;2023-02-28T08:11:16;16.45;;;8.48;;
52354;SDS011;38286;51.156;17.038;2023-02-28T08:13:43;13.30;;;7.53;;
52354;SDS011;38286;51.156;17.038;2023-02-28T08:16:10;11.77;;;7.50;;
52354;SDS011;38286;51.156;17.038;2023-02-28T08:18:36;12.23;;;7.72;;
52354;SDS011;38286;51.156;17.038;2023-02-28T08:21:05;13.77;;;7.65;;
52354;SDS011;38286;51.156;17.038;2023-02-28T08:23:32;11.98;;;7.55;;
52354;SDS011;38286;51.156;17.038;2023-02-28T08:25:58;13.93;;;7.30;;
52354;SDS011;38286;51.156;17.038;2023-02-28T08:28:24;10.25;;;7.28;;
52354;SDS011;38286;51.156;17.038;2023-02-28T08:30:50;13.25;;;7.63;;
52354;SDS011;38286;51.156;17.038;2023-02-28T08:33:15;10.50;;;6.80;;
52354;SDS011;38286;51.156;17.038;2023-02-28T08:35:41;10.85;;;6.47;;
52354;SDS011;38286;51.156;17.038;2023-02-28T08:38:07;11.70;;;6.90;;
52354;SDS011;38286;51.156;17.038;2023-02-28T08:40:32;10.25;;;6.97;;
52354;SDS011;38286;51.156;17.038;2023-02-28T08:42:58;9.98;;;6.50;;
52354;SDS011;38286;51.156;17.038;2023-02-28T08:45:24;9.63;;;6.60;;
52354;SDS011;38286;51.156;17.038;2023-02-28T08:47:50;9.30;;;6.28;;
52354;SDS011;38286;51.156;17.038;2023-02-28T08:50:17;11.77;;;6.75;;
52354;SDS011;38286;51.156;17.038;2023-02-28T08:52:43;8.68;;;6.57;;
52354;SDS011;38286;51.156;17.038;2023-02-28T08:55:09;11.93;;;7.30;;
52354;SDS011;38286;51.156;17.038;2023-02-28T08:57:35;10.77;;;6.72;;
52354;SDS011;38286;51.156;17.038;2023-02-28T09:00:01;11.48;;;6.40;;
52354;SDS011;38286;51.156;17.038;2023-02-28T09:02:30;8.38;;;5.43;;
52354;SDS011;38286;51.156;17.038;2023-02-28T09:04:56;10.55;;;5.28;;
52354;SDS011;38286;51.156;17.038;2023-02-28T09:07:23;12.88;;;6.35;;
52354;SDS011;38286;51.156;17.038;2023-02-28T09:09:49;11.48;;;6.30;;
52354;SDS011;38286;51.156;17.038;2023-02-28T09:12:24;11.15;;;5.82;;
52354;SDS011;38286;51.156;17.038;2023-02-28T09:14:50;10.25;;;6.40;;
52354;SDS011;38286;51.156;17.038;2023-02-28T09:17:17;10.32;;;5.45;;
52354;SDS011;38286;51.156;17.038;2023-02-28T09:19:42;9.18;;;5.63;;
52354;SDS011;38286;51.156;17.038;2023-02-28T09:22:09;9.63;;;5.65;;
52354;SDS011;38286;51.156;17.038;2023-02-28T09:24:35;8.30;;;5.00;;
52354;SDS011;38286;51.156;17.038;2023-02-28T09:27:02;10.50;;;6.00;;
52354;SDS011;38286;51.156;17.038;2023-02-28T09:29:28;8.75;;;5.93;;
52354;SDS011;38286;51.156;17.038;2023-02-28T09:31:54;9.05;;;5.50;;
52354;SDS011;38286;51.156;17.038;2023-02-28T09:34:19;6.90;;;4.47;;
52354;SDS011;38286;51.156;17.038;2023-02-28T09:36:45;6.65;;;4.57;;
52354;SDS011;38286;51.156;17.038;2023-02-28T09:39:11;6.57;;;3.25;;
52354;SDS011;38286;51.156;17.038;2023-02-28T09:41:41;5.88;;;3.70;;
52354;SDS011;38286;51.156;17.038;2023-02-28T09:44:17;5.30;;;3.40;;
52354;SDS011;38286;51.156;17.038;2023-02-28T09:46:50;5.57;;;3.53;;
52354;SDS011;38286;51.156;17.038;2023-02-28T09:49:19;7.97;;;4.07;;
52354;SDS011;38286;51.156;17.038;2023-02-28T09:52:02;7.18;;;4.10;;
52354;SDS011;38286;51.156;17.038;2023-02-28T09:54:34;6.22;;;4.22;;
52354;SDS011;38286;51.156;17.038;2023-02-28T09:57:01;7.50;;;4.28;;
52354;SDS011;38286;51.156;17.038;2023-02-28T09:59:35;6.53;;;4.35;;
52354;SDS011;38286;51.156;17.038;2023-02-28T10:05:11;6.97;;;4.63;;
52354;SDS011;38286;51.156;17.038;2023-02-28T10:07:57;6.40;;;5.00;;
52354;SDS011;38286;51.156;17.038;2023-02-28T10:13:41;9.68;;;5.00;;
52354;SDS011;38286;51.156;17.038;2023-02-28T10:16:16;8.65;;;4.88;;
52354;SDS011;38286;51.156;17.038;2023-02-28T10:18:47;7.45;;;4.53;;
52354;SDS011;38286;51.156;17.038;2023-02-28T10:21:34;7.43;;;4.72;;
52354;SDS011;38286;51.156;17.038;2023-02-28T10:24:03;6.35;;;4.30;;
52354;SDS011;38286;51.156;17.038;2023-02-28T10:26:50;9.63;;;5.60;;
52354;SDS011;38286;51.156;17.038;2023-02-28T10:29:18;8.65;;;5.03;;
52354;SDS011;38286;51.156;17.038;2023-02-28T10:31:43;7.00;;;5.15;;
52354;SDS011;38286;51.156;17.038;2023-02-28T10:34:10;8.68;;;5.15;;
52354;SDS011;38286;51.156;17.038;2023-02-28T10:36:37;7.18;;;5.00;;
52354;SDS011;38286;51.156;17.038;2023-02-28T10:39:33;8.02;;;5.75;;
52354;SDS011;38286;51.156;17.038;2023-02-28T10:42:20;7.43;;;5.53;;
52354;SDS011;38286;51.156;17.038;2023-02-28T10:44:46;8.02;;;5.10;;
52354;SDS011;38286;51.156;17.038;2023-02-28T10:47:16;11.23;;;6.57;;
52354;SDS011;38286;51.156;17.038;2023-02-28T10:49:49;10.35;;;6.75;;
52354;SDS011;38286;51.156;17.038;2023-02-28T10:52:32;11.93;;;5.82;;
52354;SDS011;38286;51.156;17.038;2023-02-28T10:55:23;10.23;;;5.80;;
52354;SDS011;38286;51.156;17.038;2023-02-28T10:57:50;12.00;;;6.75;;
52354;SDS011;38286;51.156;17.038;2023-02-28T11:02:44;8.10;;;5.75;;
52354;SDS011;38286;51.156;17.038;2023-02-28T11:07:53;10.40;;;7.00;;
52354;SDS011;38286;51.156;17.038;2023-02-28T11:10:20;12.95;;;6.75;;
52354;SDS011;38286;51.156;17.038;2023-02-28T11:12:46;10.00;;;6.45;;
52354;SDS011;38286;51.156;17.038;2023-02-28T11:15:34;10.18;;;6.65;;
52354;SDS011;38286;51.156;17.038;2023-02-28T11:18:16;11.15;;;6.55;;
52354;SDS011;38286;51.156;17.038;2023-02-28T11:20:49;9.05;;;6.13;;
52354;SDS011;38286;51.156;17.038;2023-02-28T11:23:16;10.35;;;6.25;;
52354;SDS011;38286;51.156;17.038;2023-02-28T11:25:46;13.25;;;7.07;;
52354;SDS011;38286;51.156;17.038;2023-02-28T11:33:49;10.43;;;6.68;;
52354;SDS011;38286;51.156;17.038;2023-02-28T11:38:56;14.85;;;8.90;;
52354;SDS011;38286;51.156;17.038;2023-02-28T11:44:32;17.20;;;9.65;;
52354;SDS011;38286;51.156;17.038;2023-02-28T11:49:58;17.55;;;9.30;;
52354;SDS011;38286;51.156;17.038;2023-02-28T11:52:56;18.20;;;9.50;;
52354;SDS011;38286;51.156;17.038;2023-02-28T11:55:26;16.95;;;8.90;;
52354;SDS011;38286;51.156;17.038;2023-02-28T12:06:18;18.17;;;8.98;;
52354;SDS011;38286;51.156;17.038;2023-02-28T12:16:59;17.30;;;8.82;;
52354;SDS011;38286;51.156;17.038;2023-02-28T12:19:48;14.70;;;7.55;;
52354;SDS011;38286;51.156;17.038;2023-02-28T12:22:28;16.33;;;7.90;;
52354;SDS011;38286;51.156;17.038;2023-02-28T12:27:33;17.02;;;7.63;;
52354;SDS011;38286;51.156;17.038;2023-02-28T12:30:06;14.15;;;7.32;;
52354;SDS011;38286;51.156;17.038;2023-02-28T12:32:41;13.88;;;7.60;;
52354;SDS011;38286;51.156;17.038;2023-02-28T12:35:13;16.38;;;8.20;;
52354;SDS011;38286;51.156;17.038;2023-02-28T12:37:43;15.13;;;7.65;;
52354;SDS011;38286;51.156;17.038;2023-02-28T12:40:22;16.25;;;7.28;;
52354;SDS011;38286;51.156;17.038;2023-02-28T12:42:49;18.95;;;8.32;;
52354;SDS011;38286;51.156;17.038;2023-02-28T12:45:25;17.10;;;7.97;;
52354;SDS011;38286;51.156;17.038;2023-02-28T12:47:57;13.88;;;7.13;;
52354;SDS011;38286;51.156;17.038;2023-02-28T12:50:26;14.60;;;7.68;;
52354;SDS011;38286;51.156;17.038;2023-02-28T12:56:07;15.27;;;7.88;;
52354;SDS011;38286;51.156;17.038;2023-02-28T12:58:45;13.23;;;7.20;;
52354;SDS011;38286;51.156;17.038;2023-02-28T13:01:20;12.50;;;6.97;;
52354;SDS011;38286;51.156;17.038;2023-02-28T13:09:52;15.45;;;7.78;;
52354;SDS011;38286;51.156;17.038;2023-02-28T13:12:20;13.18;;;7.40;;
52354;SDS011;38286;51.156;17.038;2023-02-28T13:14:48;15.02;;;7.55;;
52354;SDS011;38286;51.156;17.038;2023-02-28T13:17:21;13.13;;;7.10;;
52354;SDS011;38286;51.156;17.038;2023-02-28T13:22:37;14.90;;;7.68;;
52354;SDS011;38286;51.156;17.038;2023-02-28T13:27:48;17.73;;;8.07;;
52354;SDS011;38286;51.156;17.038;2023-02-28T13:33:26;14.48;;;7.78;;
52354;SDS011;38286;51.156;17.038;2023-02-28T13:36:06;14.48;;;7.75;;
52354;SDS011;38286;51.156;17.038;2023-02-28T13:38:34;18.45;;;8.88;;
52354;SDS011;38286;51.156;17.038;2023-02-28T13:46:30;18.40;;;7.82;;
52354;SDS011;38286;51.156;17.038;2023-02-28T13:48:56;17.42;;;8.02;;
52354;SDS011;38286;51.156;17.038;2023-02-28T13:51:50;17.40;;;8.40;;
52354;SDS011;38286;51.156;17.038;2023-02-28T14:07:45;21.42;;;9.05;;
52354;SDS011;38286;51.156;17.038;2023-02-28T14:10:26;17.00;;;8.27;;
52354;SDS011;38286;51.156;17.038;2023-02-28T14:12:55;16.05;;;8.55;;
52354;SDS011;38286;51.156;17.038;2023-02-28T14:15:39;26.23;;;11.18;;
52354;SDS011;38286;51.156;17.038;2023-02-28T14:18:21;16.52;;;8.48;;
52354;SDS011;38286;51.156;17.038;2023-02-28T14:21:09;15.93;;;8.32;;
52354;SDS011;38286;51.156;17.038;2023-02-28T14:23:50;19.17;;;9.18;;
52354;SDS011;38286;51.156;17.038;2023-02-28T14:26:37;19.67;;;8.60;;
52354;SDS011;38286;51.156;17.038;2023-02-28T14:30:29;16.98;;;8.23;;
52354;SDS011;38286;51.156;17.038;2023-02-28T14:37:46;17.85;;;8.25;;
52354;SDS011;38286;51.156;17.038;2023-02-28T14:40:17;15.32;;;7.93;;
52354;SDS011;38286;51.156;17.038;2023-02-28T14:43:00;17.23;;;7.68;;
52354;SDS011;38286;51.156;17.038;2023-02-28T14:45:32;18.30;;;8.25;;
52354;SDS011;38286;51.156;17.038;2023-02-28T14:47:59;16.77;;;8.02;;
52354;SDS011;38286;51.156;17.038;2023-02-28T14:50:27;16.00;;;8.40;;
52354;SDS011;38286;51.156;17.038;2023-02-28T14:52:56;16.35;;;7.90;;
52354;SDS011;38286;51.156;17.038;2023-02-28T14:55:26;13.82;;;8.45;;
52354;SDS011;38286;51.156;17.038;2023-02-28T14:57:55;17.02;;;8.45;;
52354;SDS011;38286;51.156;17.038;2023-02-28T15:00:30;18.52;;;8.32;;
52354;SDS011;38286;51.156;17.038;2023-02-28T15:02:58;16.77;;;8.15;;
52354;SDS011;38286;51.156;17.038;2023-02-28T15:05:28;14.30;;;7.40;;
52354;SDS011;38286;51.156;17.038;2023-02-28T15:08:12;15.00;;;8.27;;
52354;SDS011;38286;51.156;17.038;2023-02-28T15:10:43;17.75;;;8.40;;
52354;SDS011;38286;51.156;17.038;2023-02-28T15:13:12;16.50;;;8.07;;
52354;SDS011;38286;51.156;17.038;2023-02-28T15:18:13;14.25;;;7.75;;
52354;SDS011;38286;51.156;17.038;2023-02-28T15:20:41;13.95;;;6.72;;
52354;SDS011;38286;51.156;17.038;2023-02-28T15:23:08;12.65;;;6.88;;
52354;SDS011;38286;51.156;17.038;2023-02-28T15:25:34;13.27;;;7.15;;
52354;SDS011;38286;51.156;17.038;2023-02-28T15:28:00;15.02;;;7.43;;
52354;SDS011;38286;51.156;17.038;2023-02-28T15:30:27;15.35;;;7.28;;
52354;SDS011;38286;51.156;17.038;2023-02-28T15:33:04;13.95;;;7.57;;
52354;SDS011;38286;51.156;17.038;2023-02-28T15:35:50;13.13;;;7.20;;
52354;SDS011;38286;51.156;17.038;2023-02-28T15:38:18;13.00;;;6.65;;
52354;SDS011;38286;51.156;17.038;2023-02-28T15:40:52;15.00;;;6.80;;
52354;SDS011;38286;51.156;17.038;2023-02-28T15:43:29;14.35;;;7.00;;
52354;SDS011;38286;51.156;17.038;2023-02-28T15:45:57;13.18;;;7.22;;
52354;SDS011;38286;51.156;17.038;2023-02-28T15:48:25;18.20;;;8.20;;
52354;SDS011;38286;51.156;17.038;2023-02-28T15:50:57;14.43;;;7.70;;
52354;SDS011;38286;51.156;17.038;2023-02-28T15:53:32;17.00;;;8.07;;
52354;SDS011;38286;51.156;17.038;2023-02-28T15:56:04;16.38;;;6.88;;
52354;SDS011;38286;51.156;17.038;2023-02-28T15:58:33;13.35;;;6.75;;
52354;SDS011;38286;51.156;17.038;2023-02-28T16:01:24;15.30;;;7.45;;
52354;SDS011;38286;51.156;17.038;2023-02-28T16:03:56;11.77;;;7.00;;
52354;SDS011;38286;51.156;17.038;2023-02-28T16:09:03;17.63;;;8.80;;
52354;SDS011;38286;51.156;17.038;2023-02-28T16:11:30;19.40;;;9.25;;
52354;SDS011;38286;51.156;17.038;2023-02-28T16:13:58;18.63;;;9.52;;
52354;SDS011;38286;51.156;17.038;2023-02-28T16:16:24;17.83;;;8.45;;
52354;SDS011;38286;51.156;17.038;2023-02-28T16:18:50;18.77;;;9.77;;
52354;SDS011;38286;51.156;17.038;2023-02-28T16:21:16;22.05;;;10.20;;
52354;SDS011;38286;51.156;17.038;2023-02-28T16:23:42;23.85;;;10.43;;
52354;SDS011;38286;51.156;17.038;2023-02-28T16:26:08;25.80;;;10.77;;